createdAt,value
2023-04-27T00:00:42.966Z,59.89
2023-04-27T00:03:09.831Z,59.62
2023-04-27T00:05:39.389Z,59.37
2023-04-27T00:08:07.152Z,58.98
2023-04-27T00:10:34.414Z,59.07
2023-04-27T00:13:01.867Z,58.59
2023-04-27T00:15:29.062Z,57.86
2023-04-27T00:17:55.644Z,57.85
2023-04-27T00:20:22.253Z,57.97
2023-04-27T00:22:48.776Z,57.85
2023-04-27T00:25:15.420Z,57.74
2023-04-27T00:27:41.978Z,56.97
2023-04-27T00:30:09.184Z,57.22
2023-04-27T00:32:35.926Z,57.35
2023-04-27T00:35:02.518Z,57.02
2023-04-27T00:37:29.061Z,56.06
2023-04-27T00:39:55.795Z,55.62
2023-04-27T00:42:24.991Z,56.01
2023-04-27T00:44:51.585Z,55.73
2023-04-27T00:47:18.374Z,56.34
2023-04-27T00:49:45.283Z,55.82
2023-04-27T00:52:11.888Z,55.32
2023-04-27T00:54:38.968Z,55.11
2023-04-27T00:57:05.733Z,55.48
2023-04-27T00:59:32.289Z,55.51
2023-04-27T01:01:59.750Z,55.71
2023-04-27T01:04:27.194Z,55.66
2023-04-27T01:06:54.236Z,55.73
2023-04-27T01:09:21.247Z,55.73
2023-04-27T01:11:47.752Z,55.33
2023-04-27T01:14:14.311Z,55.73
2023-04-27T01:16:40.908Z,55.33
2023-04-27T01:19:07.954Z,55.67
2023-04-27T01:21:34.574Z,55.19
2023-04-27T01:24:01.268Z,55.29
2023-04-27T01:26:27.817Z,55.13
2023-04-27T01:28:54.397Z,55.14
2023-04-27T01:31:21.031Z,54.44
2023-04-27T01:33:47.572Z,55.08
2023-04-27T01:36:14.138Z,54.99
2023-04-27T01:38:41.109Z,54.91
2023-04-27T01:41:09.339Z,54.91
2023-04-27T01:43:39.350Z,55.34
2023-04-27T01:46:13.924Z,54.83
2023-04-27T01:48:41.468Z,54.76
2023-04-27T01:51:08.126Z,54.85
2023-04-27T01:53:34.927Z,55.29
2023-04-27T01:56:01.553Z,55.75
2023-04-27T01:58:28.292Z,55.83
2023-04-27T02:00:54.941Z,55.96
2023-04-27T02:03:21.789Z,55.97
2023-04-27T02:05:48.497Z,56.41
2023-04-27T02:08:15.289Z,56.21
2023-04-27T02:10:41.897Z,56.86
2023-04-27T02:13:09.705Z,57.16
2023-04-27T02:15:36.586Z,57.26
2023-04-27T02:18:03.883Z,57.23
2023-04-27T02:20:33.586Z,56.99
2023-04-27T02:23:01.045Z,56.35
2023-04-27T02:25:27.993Z,56.42
2023-04-27T02:27:55.078Z,56.04
2023-04-27T02:30:22.429Z,55.99
2023-04-27T02:32:49.754Z,55.93
2023-04-27T02:35:16.452Z,56.15
2023-04-27T02:37:43.010Z,56.12
2023-04-27T02:40:09.988Z,55.92
2023-04-27T02:42:38.922Z,56.80
2023-04-27T02:45:08.645Z,56.63
2023-04-27T02:47:35.390Z,57.09
2023-04-27T02:50:02.742Z,56.76
2023-04-27T02:52:29.220Z,57.23
2023-04-27T02:54:55.834Z,57.63
2023-04-27T02:57:22.360Z,57.87
2023-04-27T02:59:48.881Z,58.15
2023-04-27T03:02:15.711Z,58.52
2023-04-27T03:04:43.560Z,58.68
2023-04-27T03:07:10.228Z,58.79
2023-04-27T03:09:36.798Z,58.89
2023-04-27T03:12:04.084Z,59.52
2023-04-27T03:14:30.819Z,59.25
2023-04-27T03:16:57.554Z,59.68
2023-04-27T03:19:24.355Z,59.93
2023-04-27T03:21:51.086Z,59.88
2023-04-27T03:24:17.673Z,59.84
2023-04-27T03:26:44.196Z,59.89
2023-04-27T03:29:10.776Z,59.95
2023-04-27T03:31:37.436Z,60.24
2023-04-27T03:34:04.033Z,60.60
2023-04-27T03:36:32.113Z,60.26
2023-04-27T03:38:58.658Z,60.80
2023-04-27T03:41:25.307Z,60.72
2023-04-27T03:43:53.485Z,60.75
2023-04-27T03:46:20.061Z,60.84
2023-04-27T03:48:47.293Z,60.90
2023-04-27T03:51:14.083Z,60.55
2023-04-27T03:53:40.818Z,60.84
2023-04-27T03:56:07.534Z,60.70
2023-04-27T03:58:34.242Z,60.34
2023-04-27T04:01:01.342Z,60.10
2023-04-27T04:03:28.243Z,59.90
2023-04-27T04:05:54.932Z,60.12
2023-04-27T04:08:21.472Z,59.51
2023-04-27T04:10:48.039Z,59.12
2023-04-27T04:13:14.552Z,58.80
2023-04-27T04:15:41.252Z,58.70
2023-04-27T04:18:07.882Z,58.65
2023-04-27T04:20:36.114Z,58.42
2023-04-27T04:23:02.671Z,58.56
2023-04-27T04:25:29.262Z,58.92
2023-04-27T04:27:56.117Z,58.65
2023-04-27T04:30:23.299Z,58.29
2023-04-27T04:32:49.892Z,58.56
2023-04-27T04:35:19.774Z,58.71
2023-04-27T04:37:46.832Z,58.13
2023-04-27T04:40:14.043Z,58.26
2023-04-27T04:42:40.664Z,58.38
2023-04-27T04:45:07.911Z,58.05
2023-04-27T04:47:35.133Z,58.38
2023-04-27T04:50:02.161Z,58.17
2023-04-27T04:52:28.849Z,57.66
2023-04-27T04:54:55.404Z,59.48
2023-04-27T04:57:22.274Z,59.67
2023-04-27T04:59:48.890Z,58.91
2023-04-27T05:02:15.480Z,57.13
2023-04-27T05:04:42.161Z,57.26
2023-04-27T05:07:08.763Z,56.51
2023-04-27T05:09:35.392Z,55.90
2023-04-27T05:12:02.069Z,54.43
2023-04-27T05:14:28.652Z,53.61
2023-04-27T05:16:55.272Z,53.70
2023-04-27T05:19:22.120Z,53.92
2023-04-27T05:21:48.761Z,53.51
2023-04-27T05:24:15.369Z,54.33
2023-04-27T05:26:43.647Z,54.37
2023-04-27T05:29:10.345Z,54.16
2023-04-27T05:31:37.054Z,53.78
2023-04-27T05:34:03.675Z,54.09
2023-04-27T05:36:30.288Z,54.36
2023-04-27T05:38:56.957Z,54.45
2023-04-27T05:41:23.871Z,55.13
2023-04-27T05:43:50.415Z,54.82
2023-04-27T05:46:17.068Z,54.75
2023-04-27T05:48:43.820Z,54.42
2023-04-27T05:51:10.495Z,54.57
2023-04-27T05:53:37.049Z,54.11
2023-04-27T05:56:06.611Z,54.45
2023-04-27T05:58:33.855Z,54.70
2023-04-27T06:01:01.162Z,54.36
2023-04-27T06:03:27.803Z,53.75
2023-04-27T06:06:00.749Z,54.05
2023-04-27T06:08:27.937Z,53.78
2023-04-27T06:10:54.680Z,53.62
2023-04-27T06:13:21.651Z,53.64
2023-04-27T06:15:48.304Z,53.22
2023-04-27T06:18:15.080Z,53.18
2023-04-27T06:20:42.933Z,52.36
2023-04-27T06:23:09.772Z,52.75
2023-04-27T06:25:38.840Z,52.91
2023-04-27T06:28:05.599Z,52.51
2023-04-27T06:30:32.219Z,52.03
2023-04-27T06:32:58.817Z,52.00
2023-04-27T06:35:25.582Z,51.45
2023-04-27T06:37:52.138Z,51.66
2023-04-27T06:40:18.695Z,51.41
2023-04-27T06:42:45.325Z,51.68
2023-04-27T06:45:12.358Z,51.87
2023-04-27T06:47:38.921Z,51.78
2023-04-27T06:50:06.366Z,51.87
2023-04-27T06:52:33.689Z,51.78
2023-04-27T06:55:00.368Z,51.58
2023-04-27T06:57:27.870Z,51.11
2023-04-27T06:59:54.427Z,51.03
2023-04-27T07:02:21.852Z,51.18
2023-04-27T07:04:49.830Z,50.95
2023-04-27T07:07:16.476Z,51.21
2023-04-27T07:09:44.126Z,50.13
2023-04-27T07:12:10.683Z,50.12
2023-04-27T07:14:37.384Z,49.91
2023-04-27T07:17:03.937Z,49.74
2023-04-27T07:19:30.624Z,50.08
2023-04-27T07:21:57.163Z,49.89
2023-04-27T07:24:23.651Z,49.92
2023-04-27T07:26:50.218Z,50.07
2023-04-27T07:29:26.115Z,49.34
2023-04-27T07:31:53.571Z,49.70
2023-04-27T07:34:20.346Z,49.59
2023-04-27T07:36:46.958Z,49.22
2023-04-27T07:39:13.675Z,49.34
2023-04-27T07:41:41.229Z,49.08
2023-04-27T07:44:07.772Z,48.79
2023-04-27T07:46:34.347Z,47.74
2023-04-27T07:49:01.099Z,48.49
2023-04-27T07:51:30.420Z,47.93
2023-04-27T07:53:56.917Z,48.41
2023-04-27T07:56:23.514Z,48.82
2023-04-27T07:58:50.880Z,48.66
2023-04-27T08:01:19.474Z,48.14
2023-04-27T08:03:47.525Z,48.13
2023-04-27T08:06:14.888Z,49.47
2023-04-27T08:08:41.784Z,49.28
2023-04-27T08:11:12.264Z,48.86
2023-04-27T08:13:38.870Z,48.69
2023-04-27T08:16:05.981Z,49.46
2023-04-27T08:18:32.701Z,49.30
2023-04-27T08:20:59.224Z,48.81
2023-04-27T08:23:29.792Z,47.62
2023-04-27T08:25:56.559Z,47.73
2023-04-27T08:28:23.532Z,48.01
2023-04-27T08:30:50.177Z,47.64
2023-04-27T08:33:16.717Z,47.31
2023-04-27T08:35:43.348Z,47.49
2023-04-27T08:38:09.950Z,47.05
2023-04-27T08:40:36.473Z,47.51
2023-04-27T08:43:03.035Z,47.10
2023-04-27T08:45:29.683Z,47.25
2023-04-27T08:47:57.043Z,47.99
2023-04-27T08:50:24.416Z,47.23
2023-04-27T08:52:52.144Z,47.17
2023-04-27T08:55:19.147Z,46.36
2023-04-27T08:58:12.168Z,45.83
2023-04-27T09:00:43.226Z,46.51
2023-04-27T09:03:23.071Z,45.93
2023-04-27T09:06:03.754Z,44.98
2023-04-27T09:08:50.632Z,44.80
2023-04-27T09:11:29.437Z,44.14
2023-04-27T09:13:56.043Z,44.56
2023-04-27T09:16:28.383Z,44.40
2023-04-27T09:18:56.620Z,44.52
2023-04-27T09:21:27.879Z,43.20
2023-04-27T09:23:55.924Z,43.12
2023-04-27T09:26:27.196Z,42.62
2023-04-27T09:28:58.980Z,42.75
2023-04-27T09:31:35.707Z,42.46
2023-04-27T09:34:03.116Z,41.97
2023-04-27T09:36:30.880Z,41.52
2023-04-27T09:38:57.996Z,42.38
2023-04-27T09:41:25.390Z,42.28
2023-04-27T09:43:56.325Z,41.55
2023-04-27T09:46:24.479Z,40.84
2023-04-27T09:48:52.692Z,39.76
2023-04-27T09:51:19.213Z,39.52
2023-04-27T09:53:52.761Z,38.87
2023-04-27T09:56:55.683Z,39.24
2023-04-27T09:59:41.268Z,38.74
2023-04-27T10:02:24.142Z,38.85
2023-04-27T10:05:15.090Z,39.14
2023-04-27T10:07:41.837Z,37.96
2023-04-27T10:10:20.539Z,38.12
2023-04-27T10:12:58.056Z,37.30
2023-04-27T10:15:29.833Z,37.37
2023-04-27T10:17:59.282Z,37.66
2023-04-27T10:20:31.109Z,37.46
2023-04-27T10:22:58.923Z,38.35
2023-04-27T10:25:28.403Z,37.94
2023-04-27T10:28:02.642Z,37.15
2023-04-27T10:30:36.240Z,38.08
2023-04-27T10:33:10.941Z,37.49
2023-04-27T10:35:43.262Z,36.98
2023-04-27T10:38:18.239Z,37.01
2023-04-27T10:40:46.541Z,37.90
2023-04-27T10:43:17.843Z,37.93
2023-04-27T10:45:45.469Z,36.75
2023-04-27T10:48:15.884Z,37.14
2023-04-27T10:50:44.774Z,36.96
2023-04-27T10:53:11.502Z,37.00
2023-04-27T10:55:38.163Z,37.30
2023-04-27T10:58:04.847Z,37.10
2023-04-27T11:00:41.478Z,36.65
2023-04-27T11:03:15.915Z,36.11
2023-04-27T11:05:48.014Z,36.33
2023-04-27T11:08:15.954Z,36.28
2023-04-27T11:10:50.633Z,35.59
2023-04-27T11:13:22.472Z,34.88
2023-04-27T11:15:58.851Z,35.17
2023-04-27T11:18:29.238Z,35.52
2023-04-27T11:21:07.469Z,35.86
2023-04-27T11:23:38.185Z,35.64
2023-04-27T11:26:14.909Z,35.42
2023-04-27T11:29:01.915Z,34.61
2023-04-27T11:31:41.949Z,35.20
2023-04-27T11:34:08.780Z,34.79
2023-04-27T11:36:36.154Z,34.96
2023-04-27T11:39:06.489Z,34.44
2023-04-27T11:41:37.352Z,33.42
2023-04-27T11:44:08.859Z,33.83
2023-04-27T11:46:36.711Z,34.47
2023-04-27T11:49:08.745Z,33.95
2023-04-27T11:51:38.361Z,33.14
2023-04-27T11:54:08.129Z,33.72
2023-04-27T11:56:39.157Z,33.00
2023-04-27T11:59:06.380Z,33.12
2023-04-27T12:01:38.059Z,34.05
2023-04-27T12:04:05.245Z,33.56
2023-04-27T12:06:33.867Z,34.39
2023-04-27T12:09:00.989Z,35.22
2023-04-27T12:11:30.797Z,35.04
2023-04-27T12:13:57.550Z,34.10
2023-04-27T12:16:24.185Z,34.68
2023-04-27T12:18:50.845Z,35.12
2023-04-27T12:21:17.670Z,34.60
2023-04-27T12:23:44.485Z,34.11
2023-04-27T12:26:14.946Z,33.38
2023-04-27T12:28:41.969Z,33.74
2023-04-27T12:31:08.590Z,33.62
2023-04-27T12:33:35.403Z,33.90
2023-04-27T12:36:02.052Z,33.20
2023-04-27T12:38:29.241Z,33.41
2023-04-27T12:40:56.446Z,33.81
2023-04-27T12:43:22.976Z,34.26
2023-04-27T12:45:49.576Z,34.20
2023-04-27T12:48:17.693Z,33.74
2023-04-27T12:50:44.524Z,33.62
2023-04-27T12:53:11.528Z,33.67
2023-04-27T12:55:38.183Z,33.49
2023-04-27T12:58:05.121Z,33.60
2023-04-27T13:00:32.216Z,34.01
2023-04-27T13:02:58.849Z,33.93
2023-04-27T13:05:26.400Z,34.14
2023-04-27T13:07:53.149Z,34.02
2023-04-27T13:10:19.715Z,33.78
2023-04-27T13:12:46.323Z,33.66
2023-04-27T13:15:12.870Z,33.57
2023-04-27T13:17:40.295Z,33.73
2023-04-27T13:20:09.048Z,34.30
2023-04-27T13:22:35.820Z,33.68
2023-04-27T13:25:02.415Z,33.90
2023-04-27T13:27:28.970Z,33.41
2023-04-27T13:29:56.112Z,33.97
2023-04-27T13:32:23.051Z,32.78
2023-04-27T13:34:49.804Z,32.43
2023-04-27T13:37:17.296Z,31.85
2023-04-27T13:39:43.843Z,32.20
2023-04-27T13:42:10.435Z,32.04
2023-04-27T13:44:37.046Z,32.91
2023-04-27T13:47:03.808Z,32.54
2023-04-27T13:49:30.434Z,33.34
2023-04-27T13:51:57.017Z,32.96
2023-04-27T13:54:23.907Z,32.26
2023-04-27T13:56:50.460Z,32.12
2023-04-27T13:59:17.297Z,31.92
2023-04-27T14:01:44.016Z,31.70
2023-04-27T14:04:10.824Z,31.18
2023-04-27T14:06:37.736Z,31.27
2023-04-27T14:09:04.831Z,31.00
2023-04-27T14:11:37.205Z,31.15
2023-04-27T14:14:08.948Z,31.56
2023-04-27T14:16:35.746Z,32.54
2023-04-27T14:19:02.354Z,32.56
2023-04-27T14:21:28.969Z,33.38
2023-04-27T14:23:55.557Z,33.78
2023-04-27T14:26:22.092Z,33.99
2023-04-27T14:28:48.595Z,33.90
2023-04-27T14:31:15.229Z,33.29
2023-04-27T14:33:41.788Z,32.19
2023-04-27T14:36:08.571Z,32.08
2023-04-27T14:38:35.174Z,31.34
2023-04-27T14:41:03.016Z,30.40
2023-04-27T14:43:29.707Z,31.00
2023-04-27T14:46:04.862Z,29.62
2023-04-27T14:48:38.878Z,29.04
2023-04-27T14:51:06.580Z,27.79
2023-04-27T14:53:33.362Z,27.20
2023-04-27T14:55:59.918Z,26.39
2023-04-27T14:58:26.469Z,26.24
2023-04-27T15:00:52.968Z,26.84
2023-04-27T15:03:20.438Z,27.78
2023-04-27T15:05:47.092Z,28.93
2023-04-27T15:08:13.660Z,29.22
2023-04-27T15:10:40.192Z,30.10
2023-04-27T15:13:06.802Z,31.11
2023-04-27T15:15:33.344Z,31.19
2023-04-27T15:17:59.955Z,31.27
2023-04-27T15:20:27.049Z,31.82
2023-04-27T15:22:53.613Z,32.69
2023-04-27T15:25:20.421Z,33.07
2023-04-27T15:27:47.097Z,33.48
2023-04-27T15:30:14.790Z,33.98
2023-04-27T15:32:41.679Z,34.36
2023-04-27T15:35:08.875Z,34.50
2023-04-27T15:37:36.807Z,35.23
2023-04-27T15:40:04.283Z,35.36
2023-04-27T15:42:30.993Z,35.48
2023-04-27T15:44:58.067Z,35.70
2023-04-27T15:47:24.557Z,35.63
2023-04-27T15:49:57.432Z,35.68
2023-04-27T15:52:24.447Z,36.23
2023-04-27T15:54:51.081Z,36.81
2023-04-27T15:57:18.385Z,36.91
2023-04-27T15:59:44.986Z,36.78
2023-04-27T16:02:12.258Z,36.88
2023-04-27T16:04:38.917Z,37.25
2023-04-27T16:07:08.295Z,37.10
2023-04-27T16:09:35.336Z,37.26
2023-04-27T16:12:03.862Z,37.80
2023-04-27T16:14:30.632Z,37.63
2023-04-27T16:17:00.827Z,38.30
2023-04-27T16:19:27.748Z,38.08
2023-04-27T16:21:54.479Z,38.41
2023-04-27T16:24:21.305Z,38.61
2023-04-27T16:26:48.072Z,38.64
2023-04-27T16:29:14.877Z,38.50
2023-04-27T16:31:42.779Z,39.02
2023-04-27T16:34:09.558Z,39.06
2023-04-27T16:36:36.581Z,38.72
2023-04-27T16:39:05.047Z,38.38
2023-04-27T16:41:31.786Z,37.96
2023-04-27T16:43:58.411Z,38.11
2023-04-27T16:46:25.133Z,38.12
2023-04-27T16:48:51.733Z,37.99
2023-04-27T16:51:18.354Z,38.00
2023-04-27T16:53:44.966Z,38.03
2023-04-27T16:56:13.487Z,37.88
2023-04-27T16:58:40.984Z,38.04
2023-04-27T17:01:07.859Z,37.79
2023-04-27T17:03:36.161Z,37.78
2023-04-27T17:06:03.205Z,38.49
2023-04-27T17:08:29.927Z,38.98
2023-04-27T17:10:56.463Z,39.96
2023-04-27T17:13:23.072Z,40.20
2023-04-27T17:15:50.627Z,40.14
2023-04-27T17:18:17.520Z,40.07
2023-04-27T17:20:44.270Z,40.16
2023-04-27T17:23:10.796Z,40.58
2023-04-27T17:25:37.346Z,40.60
2023-04-27T17:28:04.034Z,41.07
2023-04-27T17:30:30.723Z,42.01
2023-04-27T17:32:57.869Z,42.56
2023-04-27T17:35:24.577Z,43.47
2023-04-27T17:37:52.109Z,43.53
2023-04-27T17:40:21.025Z,43.59
2023-04-27T17:42:48.000Z,43.35
2023-04-27T17:45:15.436Z,44.70
2023-04-27T17:47:42.318Z,44.89
2023-04-27T17:50:09.433Z,45.36
2023-04-27T17:52:36.012Z,45.00
2023-04-27T17:55:02.985Z,45.74
2023-04-27T17:57:29.556Z,46.73
2023-04-27T17:59:56.138Z,47.11
2023-04-27T18:02:23.141Z,47.31
2023-04-27T18:04:50.082Z,47.32
2023-04-27T18:07:18.622Z,48.18
2023-04-27T18:09:45.504Z,48.22
2023-04-27T18:12:12.201Z,48.84
2023-04-27T18:14:39.093Z,49.29
2023-04-27T18:17:05.884Z,49.67
2023-04-27T18:19:32.537Z,50.36
2023-04-27T18:21:59.379Z,49.96
2023-04-27T18:24:26.146Z,50.15
2023-04-27T18:26:52.732Z,50.28
2023-04-27T18:29:19.400Z,50.61
2023-04-27T18:31:46.288Z,51.11
2023-04-27T18:34:13.252Z,51.25
2023-04-27T18:36:40.020Z,50.93
2023-04-27T18:39:06.617Z,51.52
2023-04-27T18:41:33.174Z,51.87
2023-04-27T18:44:04.797Z,51.56
2023-04-27T18:46:32.054Z,52.36
2023-04-27T18:48:58.598Z,52.73
2023-04-27T18:51:26.313Z,51.97
2023-04-27T18:53:53.488Z,53.02
2023-04-27T18:56:20.219Z,52.73
2023-04-27T18:58:48.610Z,53.25
2023-04-27T19:01:25.962Z,53.55
2023-04-27T19:03:53.314Z,53.86
2023-04-27T19:06:21.104Z,53.66
2023-04-27T19:08:48.158Z,53.27
2023-04-27T19:11:14.692Z,53.67
2023-04-27T19:13:43.223Z,53.79
2023-04-27T19:16:10.462Z,54.27
2023-04-27T19:18:37.282Z,54.56
2023-04-27T19:21:04.424Z,53.83
2023-04-27T19:23:31.042Z,54.44
2023-04-27T19:26:02.772Z,54.65
2023-04-27T19:28:36.859Z,54.48
2023-04-27T19:31:03.474Z,55.08
2023-04-27T19:33:30.069Z,54.56
2023-04-27T19:35:58.506Z,55.66
2023-04-27T19:38:25.665Z,55.83
2023-04-27T19:40:52.444Z,55.31
2023-04-27T19:43:19.082Z,55.92
2023-04-27T19:45:45.703Z,55.70
2023-04-27T19:48:12.316Z,55.63
2023-04-27T19:50:41.778Z,56.30
2023-04-27T19:53:08.520Z,56.42
2023-04-27T19:55:35.114Z,56.58
2023-04-27T19:58:01.650Z,57.00
2023-04-27T20:00:28.361Z,56.49
2023-04-27T20:02:55.336Z,56.14
2023-04-27T20:05:22.312Z,56.69
2023-04-27T20:07:51.551Z,57.26
2023-04-27T20:10:18.168Z,58.06
2023-04-27T20:12:55.419Z,59.24
2023-04-27T20:15:23.054Z,59.77
2023-04-27T20:17:49.643Z,59.75
2023-04-27T20:20:16.388Z,60.22
2023-04-27T20:22:42.942Z,60.44
2023-04-27T20:25:09.922Z,60.77
2023-04-27T20:27:36.525Z,60.68
2023-04-27T20:30:03.718Z,61.47
2023-04-27T20:32:30.319Z,61.50
2023-04-27T20:34:56.822Z,61.52
2023-04-27T20:37:24.792Z,61.12
2023-04-27T20:39:54.568Z,61.53
2023-04-27T20:42:21.178Z,61.50
2023-04-27T20:44:48.480Z,61.92
2023-04-27T20:47:15.158Z,61.94
2023-04-27T20:49:42.250Z,62.32
2023-04-27T20:52:08.954Z,62.30
2023-04-27T20:54:36.325Z,61.79
2023-04-27T20:57:08.465Z,62.42
2023-04-27T20:59:35.131Z,62.65
2023-04-27T21:02:01.799Z,62.40
2023-04-27T21:04:28.489Z,62.68
2023-04-27T21:06:55.052Z,62.73
2023-04-27T21:09:21.851Z,63.00
2023-04-27T21:11:48.506Z,63.30
2023-04-27T21:14:15.272Z,62.88
2023-04-27T21:16:41.996Z,63.23
2023-04-27T21:19:08.883Z,63.50
2023-04-27T21:21:35.408Z,63.02
2023-04-27T21:24:07.839Z,63.45
2023-04-27T21:26:34.916Z,63.42
2023-04-27T21:29:01.637Z,63.06
2023-04-27T21:31:28.294Z,63.35
2023-04-27T21:33:54.924Z,62.78
2023-04-27T21:36:21.601Z,63.02
2023-04-27T21:38:48.156Z,63.41
2023-04-27T21:41:16.597Z,63.00
2023-04-27T21:43:44.165Z,63.41
2023-04-27T21:46:10.825Z,63.57
2023-04-27T21:48:37.373Z,64.43
2023-04-27T21:51:04.138Z,65.11
2023-04-27T21:53:30.724Z,65.13
2023-04-27T21:55:57.349Z,65.53
2023-04-27T21:58:24.425Z,65.69
2023-04-27T22:00:51.198Z,65.72
2023-04-27T22:03:18.109Z,65.91
2023-04-27T22:05:45.486Z,66.33
2023-04-27T22:08:12.202Z,65.99
2023-04-27T22:10:38.802Z,66.59
2023-04-27T22:13:17.659Z,66.81
2023-04-27T22:15:45.940Z,66.94
2023-04-27T22:18:14.520Z,66.98
2023-04-27T22:20:42.396Z,66.68
2023-04-27T22:23:09.495Z,67.00
2023-04-27T22:25:36.217Z,66.91
2023-04-27T22:28:02.865Z,67.00
2023-04-27T22:30:29.797Z,66.17
2023-04-27T22:32:56.821Z,66.24
2023-04-27T22:35:27.023Z,66.31
2023-04-27T22:37:57.426Z,66.34
2023-04-27T22:40:24.579Z,66.60
2023-04-27T22:42:51.488Z,67.10
2023-04-27T22:45:18.145Z,68.01
2023-04-27T22:47:46.060Z,68.46
2023-04-27T22:50:13.481Z,68.67
2023-04-27T22:52:42.231Z,69.08
2023-04-27T22:55:10.303Z,69.00
2023-04-27T22:57:37.250Z,69.18
2023-04-27T23:00:05.490Z,69.69
2023-04-27T23:02:32.380Z,70.38
2023-04-27T23:04:59.145Z,70.49
2023-04-27T23:07:25.683Z,70.52
2023-04-27T23:09:52.900Z,70.72
2023-04-27T23:12:20.874Z,70.83
2023-04-27T23:14:47.482Z,70.69
2023-04-27T23:17:15.545Z,70.44
2023-04-27T23:19:42.194Z,70.41
2023-04-27T23:22:08.768Z,70.49
2023-04-27T23:24:35.275Z,70.82
2023-04-27T23:27:01.820Z,71.43
2023-04-27T23:29:28.538Z,71.47
2023-04-27T23:31:55.119Z,71.35
2023-04-27T23:34:21.768Z,71.62
2023-04-27T23:36:48.278Z,71.30
2023-04-27T23:39:14.806Z,71.65
2023-04-27T23:41:41.435Z,71.92
2023-04-27T23:44:08.468Z,72.22
2023-04-27T23:46:35.154Z,72.26
2023-04-27T23:49:01.818Z,72.45
2023-04-27T23:51:28.369Z,72.56
2023-04-27T23:53:54.892Z,73.22
2023-04-27T23:56:23.106Z,73.08
2023-04-27T23:58:49.855Z,73.14
